Pagrindinis puslapis
METAR-TAF:

METAR-TAF

Oro uostai :

Ikaluitas, Nunavutas, Kanada

platuma: 63-45N, ilguma: 068-33W, Aukštis: 34 m

Dabartinis oras

Ataskaita buvo paskelbta 20 minutes, ne 07:00 UTC
Ramus vėjas
Temperatūra -29°C
Drėgmė 68%
Slėgis 1026 hPa
Matomumas: 24.1 km
Mažai debesys ne aukštis 2500 ft
ledo kristalai

METAR: CYFB 280700Z 00000KT 15SM IC FEW025 M29/M33 A3029 RMK SC2 FROIN SLP263

Laikas: 02:20 (07:20 UTC)

Prognozė

Ataskaita buvo paskelbta 1 valandą ir 40 minutes, ne 05:40 UTC
Prognozė galioja nuo 28 metu 06 UTC su 29 metu 06 UTC
Vėjas 5 kt iš Šiaurės/Šiaurės Vakarų
Matomumas: 10 km
Išsisklaidę debesys ne aukštis 2500 ft
Laikinai
nuo 28 metu 06 UTC su 28 metu 12 UTC
Matomumas: 10 km
Su prošvaistėmis ne aukštis 2000 ft
sniegas
Nuo 28 metu 1200 UTC
Vėjas 8 kt iš Šiaurės Vakarų
Matomumas: 10 km
Mažai debesys ne aukštis 3000 ft

TAF: CYFB 280540Z 2806/2906 33005KT P6SM SCT025 TEMPO 2806/2812 P6SM -SN BKN020 FM281200 32008KT P6SM FEW030 RMK NXT FCST BY 281200Z

Orai ataskaitas ir orų prognozės (METAR, TAF).

turimą stotys yra geltonos ir raudonos taškus žemėlapyje.

Perkelti pele per norėdami pamatyti stoties vardą.

Tada spustelėkite, norėdami matyti oro stebėjimo ir prognozės.

Norėdami pakeisti žemėlapį: spustelėkite ant žalios mygtukų su juodo kryžiaus žemyn,; žalią mygtuką su brūkšneliu, jei norite nutolinti; arba žalių rodyklių gretimoms žemėlapius.


METAR-TAF: